KTLH METAR and TAF | Updated Today

KTLH METAR

Tallahassee Regional Airport

Observation time: 40 min. ago

KTLH 261253Z 09004KT 10SM FEW050 FEW250 26/22 A3010 RMK AO2 SLP191 CB DSNT SW T02560217

Need help? Read our tutorial on how to read METARs or read the parsed version below.

Tallahassee Regional Airport (KTLH) METAR

  • Weather conditions on Sun, 26 Jun 2022 12:53:00 +0000 (40 min. ago):
  • Present conditions: Dry
  • Clouds: A few at 1524 meters; a few at 7620 meters
  • Visibility: 16093 meters
  • Wind: 90 degrees at 4 knots
  • Temperature: 26 celsius
  • Dew point: 22 celsius
  • Pressure: 30.1 inHg
  • Remarks: AO2 SLP191 CB DSNT SW T02560217


Useful to know...

KTLH TAF

Tallahassee Regional Airport

KTLH 261120Z 2612/2712 10005KT P6SM BKN120 FM261600 09006KT P6SM SCT060 BKN120
Observation time: 2:13 hr. ago
Need help? Read our tutorial on how to read TAFs or read the parsed version below.

Parsed version of TAF for Tallahassee Regional Airport (KTLH)

  • From 26 June at 12:00 UTC, to day 27 of the month at 12:00 UTC
  • Clouds: Broken sky at 3658 meters
  • Wind: 100 degrees at 5
  • From day 26 of the month at 16:00 UTC
  • Clouds: Scattered at 1829 meters; broken sky at 3658 meters
  • Wind: 90 degrees at 6

Airports near KTLH

KBGE Weather
Region: Bainbridge

Decatur County Industrial Air Park

Not found in our database
KTVI Weather
Region: Thomasville

Thomasville Regional Airport

Not found in our database